createdAt,value
2022-12-08T00:02:29.994Z,98745.09
2022-12-08T00:05:19.934Z,98745.78
2022-12-08T00:08:09.601Z,98750.43
2022-12-08T00:10:50.792Z,98746.73
2022-12-08T00:13:23.026Z,98744.28
2022-12-08T00:16:00.711Z,98745.13
2022-12-08T00:18:32.829Z,98750.30
2022-12-08T00:21:05.152Z,98746.52
2022-12-08T00:23:37.267Z,98750.73
2022-12-08T00:26:09.803Z,98753.77
2022-12-08T00:28:42.078Z,98755.39
2022-12-08T00:31:14.641Z,98760.14
2022-12-08T00:33:46.820Z,98761.58
2022-12-08T00:36:18.973Z,98762.45
2022-12-08T00:38:51.104Z,98761.76
2022-12-08T00:41:44.656Z,98764.78
2022-12-08T00:44:18.943Z,98760.90
2022-12-08T00:46:51.996Z,98766.83
2022-12-08T00:49:24.442Z,98767.73
2022-12-08T00:51:56.717Z,98768.34
2022-12-08T00:54:29.009Z,98772.13
2022-12-08T00:57:01.149Z,98770.86
2022-12-08T00:59:33.330Z,98772.41
2022-12-08T01:02:06.007Z,98776.55
2022-12-08T01:04:38.264Z,98773.43
2022-12-08T01:07:10.968Z,98773.60
2022-12-08T01:09:43.151Z,98775.27
2022-12-08T01:12:15.319Z,98781.21
2022-12-08T01:14:47.705Z,98777.77
2022-12-08T01:17:20.356Z,98783.35
2022-12-08T01:19:52.581Z,98781.95
2022-12-08T01:22:24.749Z,98780.98
2022-12-08T01:24:56.999Z,98782.14
2022-12-08T01:27:29.134Z,98784.76
2022-12-08T01:30:01.317Z,98783.95
2022-12-08T01:32:33.589Z,98779.73
2022-12-08T01:35:05.888Z,98788.69
2022-12-08T01:37:37.996Z,98791.05
2022-12-08T01:40:11.724Z,98788.23
2022-12-08T01:42:43.869Z,98790.88
2022-12-08T01:45:26.396Z,98792.03
2022-12-08T01:48:01.952Z,98790.14
2022-12-08T01:50:35.438Z,98795.80
2022-12-08T01:53:13.318Z,98796.77
2022-12-08T01:55:49.896Z,98794.80
2022-12-08T01:58:26.756Z,98797.35
2022-12-08T02:00:59.351Z,98794.95
2022-12-08T02:03:35.641Z,98798.65
2022-12-08T02:06:09.628Z,98797.75
2022-12-08T02:08:43.333Z,98800.06
2022-12-08T02:11:16.051Z,98801.70
2022-12-08T02:13:49.760Z,98799.55
2022-12-08T02:16:36.433Z,98799.27
2022-12-08T02:19:31.809Z,98800.66
2022-12-08T02:22:12.488Z,98795.43
2022-12-08T02:24:56.310Z,98800.39
2022-12-08T02:27:49.206Z,98801.29
2022-12-08T02:30:30.178Z,98800.50
2022-12-08T02:33:28.886Z,98798.68
2022-12-08T02:36:09.535Z,98802.20
2022-12-08T02:38:51.125Z,98803.55
2022-12-08T02:41:35.863Z,98801.45
2022-12-08T02:44:13.935Z,98804.42
2022-12-08T02:46:48.662Z,98806.05
2022-12-08T02:49:21.040Z,98806.80
2022-12-08T02:51:53.996Z,98807.45
2022-12-08T02:54:26.353Z,98808.08
2022-12-08T02:57:15.724Z,98809.74
2022-12-08T03:00:07.733Z,98812.30
2022-12-08T03:02:54.457Z,98809.88
2022-12-08T03:05:37.596Z,98807.83
2022-12-08T03:08:16.320Z,98810.31
2022-12-08T03:10:54.278Z,98812.00
2022-12-08T03:13:31.890Z,98810.02
2022-12-08T03:16:07.848Z,98809.07
2022-12-08T03:18:44.415Z,98812.13
2022-12-08T03:21:20.484Z,98814.96
2022-12-08T03:23:56.584Z,98812.70
2022-12-08T03:26:36.426Z,98812.45
2022-12-08T03:29:09.342Z,98813.02
2022-12-08T03:31:44.920Z,98816.53
2022-12-08T03:34:18.342Z,98816.73
2022-12-08T03:36:50.876Z,98818.70
2022-12-08T03:39:23.419Z,98817.81
2022-12-08T03:41:55.601Z,98816.33
2022-12-08T03:44:27.913Z,98815.25
2022-12-08T03:47:00.119Z,98811.03
2022-12-08T03:49:32.393Z,98811.27
2022-12-08T03:52:04.797Z,98811.20
2022-12-08T03:54:37.037Z,98810.39
2022-12-08T03:57:09.356Z,98810.20
2022-12-08T03:59:42.141Z,98809.21
2022-12-08T04:02:14.522Z,98813.27
2022-12-08T04:04:46.878Z,98811.96
2022-12-08T04:07:19.164Z,98814.96
2022-12-08T04:09:51.396Z,98815.41
2022-12-08T04:12:23.729Z,98819.00
2022-12-08T04:14:56.036Z,98817.98
2022-12-08T04:17:28.500Z,98819.06
2022-12-08T04:20:01.057Z,98819.65
2022-12-08T04:22:33.407Z,98817.80
2022-12-08T04:25:06.772Z,98822.96
2022-12-08T04:27:39.080Z,98827.11
2022-12-08T04:30:13.051Z,98827.38
2022-12-08T04:32:47.528Z,98823.66
2022-12-08T04:35:20.107Z,98825.39
2022-12-08T04:37:52.996Z,98819.65
2022-12-08T04:40:25.322Z,98819.61
2022-12-08T04:42:57.634Z,98825.39
2022-12-08T04:45:30.020Z,98824.63
2022-12-08T04:48:03.258Z,98822.03
2022-12-08T04:50:36.286Z,98823.08
2022-12-08T04:53:08.590Z,98827.79
2022-12-08T04:55:43.915Z,98828.67
2022-12-08T04:58:18.301Z,98827.96
2022-12-08T05:00:51.535Z,98829.50
2022-12-08T05:03:28.558Z,98830.52
2022-12-08T05:06:03.886Z,98828.05
2022-12-08T05:08:36.579Z,98833.97
2022-12-08T05:11:11.326Z,98836.71
2022-12-08T05:13:44.041Z,98835.73
2022-12-08T05:16:17.057Z,98834.98
2022-12-08T05:18:49.292Z,98838.98
2022-12-08T05:21:21.568Z,98838.83
2022-12-08T05:23:53.979Z,98837.08
2022-12-08T05:26:26.841Z,98836.72
2022-12-08T05:28:59.388Z,98838.83
2022-12-08T05:31:31.784Z,98839.41
2022-12-08T05:34:04.137Z,98843.05
2022-12-08T05:36:36.421Z,98839.09
2022-12-08T05:39:09.025Z,98843.60
2022-12-08T05:41:42.057Z,98841.43
2022-12-08T05:44:14.583Z,98844.65
2022-12-08T05:46:46.695Z,98845.80
2022-12-08T05:49:19.290Z,98847.45
2022-12-08T05:51:51.532Z,98849.09
2022-12-08T05:54:24.108Z,98853.75
2022-12-08T05:56:56.592Z,98852.84
2022-12-08T05:59:28.798Z,98856.84
2022-12-08T06:02:01.096Z,98858.08
2022-12-08T06:04:33.459Z,98862.55
2022-12-08T06:07:06.246Z,98865.63
2022-12-08T06:09:38.655Z,98865.60
2022-12-08T06:12:12.160Z,98867.66
2022-12-08T06:14:44.903Z,98873.94
2022-12-08T06:17:17.313Z,98871.81
2022-12-08T06:19:50.360Z,98874.90
2022-12-08T06:22:22.703Z,98875.98
2022-12-08T06:24:55.007Z,98879.42
2022-12-08T06:27:27.910Z,98879.27
2022-12-08T06:30:00.615Z,98882.48
2022-12-08T06:32:33.244Z,98886.89
2022-12-08T06:35:05.762Z,98884.72
2022-12-08T06:37:37.964Z,98892.25
2022-12-08T06:40:12.570Z,98893.98
2022-12-08T06:42:47.447Z,98891.48
2022-12-08T06:45:20.684Z,98892.86
2022-12-08T06:47:53.011Z,98887.70
2022-12-08T06:50:25.540Z,98887.05
2022-12-08T06:53:04.899Z,98890.93
2022-12-08T06:58:30.124Z,98892.85
2022-12-08T07:01:07.914Z,98895.70
2022-12-08T07:03:43.591Z,98897.17
2022-12-08T07:06:20.658Z,98901.92
2022-12-08T07:08:53.246Z,98905.73
2022-12-08T07:11:25.577Z,98906.50
2022-12-08T07:13:58.476Z,98909.56
2022-12-08T07:16:31.501Z,98906.96
2022-12-08T07:19:03.710Z,98909.69
2022-12-08T07:21:36.160Z,98908.55
2022-12-08T07:24:10.603Z,98910.79
2022-12-08T07:26:44.111Z,98911.23
2022-12-08T07:29:19.356Z,98906.96
2022-12-08T07:31:55.235Z,98904.93
2022-12-08T07:34:27.713Z,98903.23
2022-12-08T07:36:59.901Z,98903.09
2022-12-08T07:39:32.415Z,98904.07
2022-12-08T07:42:04.698Z,98901.13
2022-12-08T07:44:37.175Z,98899.77
2022-12-08T07:47:09.653Z,98891.52
2022-12-08T07:49:41.959Z,98890.46
2022-12-08T07:52:14.446Z,98890.45
2022-12-08T07:54:46.671Z,98891.30
2022-12-08T07:57:18.933Z,98890.52
2022-12-08T07:59:51.416Z,98885.84
2022-12-08T08:02:25.609Z,98887.70
2022-12-08T08:04:59.113Z,98888.81
2022-12-08T08:07:33.463Z,98887.74
2022-12-08T08:10:07.277Z,98890.91
2022-12-08T08:12:40.630Z,98893.06
2022-12-08T08:15:13.568Z,98893.67
2022-12-08T08:17:50.122Z,98897.61
2022-12-08T08:20:23.521Z,98908.49
2022-12-08T08:22:55.666Z,98912.50
2022-12-08T08:25:28.040Z,98908.18
2022-12-08T08:28:00.163Z,98907.77
2022-12-08T08:30:32.621Z,98908.63
2022-12-08T08:33:04.887Z,98909.21
2022-12-08T08:35:37.522Z,98910.11
2022-12-08T08:38:09.950Z,98909.48
2022-12-08T08:40:42.140Z,98914.09
2022-12-08T08:43:32.936Z,98916.82
2022-12-08T08:46:10.131Z,98921.11
2022-12-08T08:48:42.502Z,98918.30
2022-12-08T08:51:16.572Z,98917.36
2022-12-08T08:53:49.546Z,98916.27
2022-12-08T08:56:22.474Z,98916.52
2022-12-08T08:58:55.364Z,98918.89
2022-12-08T09:01:29.397Z,98916.69
2022-12-08T09:04:01.820Z,98908.42
2022-12-08T09:06:34.889Z,98910.48
2022-12-08T09:09:08.482Z,98906.84
2022-12-08T09:11:40.624Z,98907.53
2022-12-08T09:14:15.481Z,98907.71
2022-12-08T09:16:48.087Z,98908.94
2022-12-08T09:19:20.457Z,98905.69
2022-12-08T09:21:53.008Z,98902.98
2022-12-08T09:24:25.538Z,98898.39
2022-12-08T09:26:57.885Z,98893.62
2022-12-08T09:29:35.908Z,98893.32
2022-12-08T09:32:08.858Z,98892.89
2022-12-08T09:34:41.360Z,98887.34
2022-12-08T09:37:13.617Z,98888.40
2022-12-08T09:39:45.892Z,98888.63
2022-12-08T09:42:28.225Z,98891.27
2022-12-08T09:45:09.946Z,98884.69
2022-12-08T09:47:45.170Z,98879.76
2022-12-08T09:50:30.481Z,98875.27
2022-12-08T09:53:08.577Z,98882.21
2022-12-08T09:55:45.404Z,98879.59
2022-12-08T09:58:26.811Z,98880.47
2022-12-08T10:00:59.407Z,98876.86
2022-12-08T10:03:32.903Z,98872.98
2022-12-08T10:06:17.798Z,98871.23
2022-12-08T10:09:00.028Z,98873.15
2022-12-08T10:11:39.482Z,98867.25
2022-12-08T10:14:23.323Z,98860.96
2022-12-08T10:17:02.363Z,98860.00
2022-12-08T10:19:37.538Z,98855.88
2022-12-08T10:22:18.711Z,98855.40
2022-12-08T10:24:59.122Z,98858.82
2022-12-08T10:27:32.613Z,98855.95
2022-12-08T10:30:11.064Z,98852.85
2022-12-08T10:32:45.599Z,98853.20
2022-12-08T10:35:19.561Z,98853.26
2022-12-08T10:38:00.604Z,98851.04
2022-12-08T10:40:45.459Z,98851.62
2022-12-08T10:43:23.186Z,98850.70
2022-12-08T10:45:56.138Z,98847.39
2022-12-08T10:48:31.705Z,98848.92
2022-12-08T10:51:05.772Z,98846.58
2022-12-08T10:53:50.408Z,98847.23
2022-12-08T10:56:29.142Z,98843.64
2022-12-08T10:59:17.845Z,98840.23
2022-12-08T11:01:52.434Z,98833.21
2022-12-08T11:04:35.358Z,98831.42
2022-12-08T11:07:11.094Z,98829.52
2022-12-08T11:09:48.987Z,98831.78
2022-12-08T11:12:22.853Z,98829.90
2022-12-08T11:15:03.804Z,98828.09
2022-12-08T11:17:40.624Z,98832.56
2022-12-08T11:20:24.579Z,98833.77
2022-12-08T11:22:57.745Z,98836.54
2022-12-08T11:25:31.149Z,98839.98
2022-12-08T11:28:04.258Z,98836.73
2022-12-08T11:30:40.231Z,98837.33
2022-12-08T11:33:19.561Z,98828.11
2022-12-08T11:35:57.017Z,98827.06
2022-12-08T11:38:30.934Z,98825.30
2022-12-08T11:41:12.467Z,98826.48
2022-12-08T11:43:54.613Z,98826.28
2022-12-08T11:46:33.851Z,98826.56
2022-12-08T11:49:10.786Z,98827.03
2022-12-08T11:51:51.040Z,98826.11
2022-12-08T11:54:28.817Z,98822.10
2022-12-08T11:57:03.144Z,98828.86
2022-12-08T11:59:38.552Z,98825.16
2022-12-08T12:02:17.419Z,98823.73
2022-12-08T12:04:55.027Z,98821.43
2022-12-08T12:07:41.898Z,98820.33
2022-12-08T12:10:43.979Z,98819.40
2022-12-08T12:13:43.442Z,98821.97
2022-12-08T12:16:55.633Z,98820.39
2022-12-08T12:19:28.691Z,98823.27
2022-12-08T12:22:04.301Z,98815.61
2022-12-08T12:24:39.938Z,98812.98
2022-12-08T12:27:29.511Z,98813.84
2022-12-08T12:30:06.125Z,98814.36
2022-12-08T12:32:48.326Z,98811.41
2022-12-08T12:35:28.473Z,98810.41
2022-12-08T12:38:04.521Z,98809.39
2022-12-08T12:40:44.806Z,98811.46
2022-12-08T12:43:30.042Z,98806.55
2022-12-08T12:46:35.381Z,98802.89
2022-12-08T12:49:43.786Z,98804.38
2022-12-08T12:52:42.670Z,98796.52
2022-12-08T12:55:27.402Z,98796.96
2022-12-08T12:58:00.266Z,98793.60
2022-12-08T13:00:32.577Z,98797.34
2022-12-08T13:03:05.459Z,98798.20
2022-12-08T13:05:52.345Z,98799.36
2022-12-08T13:08:27.690Z,98796.51
2022-12-08T13:11:04.605Z,98796.27
2022-12-08T13:13:37.486Z,98795.16
2022-12-08T13:16:21.599Z,98790.14
2022-12-08T13:18:58.430Z,98786.23
2022-12-08T13:21:36.479Z,98786.10
2022-12-08T13:24:28.220Z,98789.66
2022-12-08T13:27:36.195Z,98795.41
2022-12-08T13:30:44.118Z,98792.11
2022-12-08T13:33:19.114Z,98789.13
2022-12-08T13:35:58.019Z,98790.45
2022-12-08T13:38:34.010Z,98790.41
2022-12-08T13:41:10.530Z,98788.74
2022-12-08T13:44:10.576Z,98789.52
2022-12-08T13:47:16.839Z,98794.45
2022-12-08T13:56:51.277Z,98789.39
2022-12-08T13:58:31.788Z,98785.11
2022-12-08T14:01:10.364Z,98782.64
2022-12-08T14:04:28.489Z,98784.02
2022-12-08T14:06:49.777Z,98782.61
2022-12-08T14:09:25.094Z,98786.22
2022-12-08T14:12:00.304Z,98782.91
2022-12-08T14:15:01.848Z,98785.30
2022-12-08T14:17:30.205Z,98785.23
2022-12-08T14:20:06.787Z,98791.04
2022-12-08T14:22:42.366Z,98797.05
2022-12-08T14:25:17.969Z,98796.42
2022-12-08T14:27:51.372Z,98799.10
2022-12-08T14:30:26.221Z,98798.29
2022-12-08T14:32:59.828Z,98794.90
2022-12-08T14:35:33.548Z,98799.15
2022-12-08T14:38:12.932Z,98794.29
2022-12-08T14:40:46.702Z,98797.09
2022-12-08T14:43:21.838Z,98802.34
2022-12-08T14:45:57.268Z,98798.20
2022-12-08T14:48:44.626Z,98796.28
2022-12-08T14:51:24.823Z,98798.70
2022-12-08T14:53:59.812Z,98798.48
2022-12-08T14:56:38.467Z,98798.77
2022-12-08T14:59:20.245Z,98798.52
2022-12-08T15:01:54.906Z,98798.61
2022-12-08T15:04:30.107Z,98799.23
2022-12-08T15:07:06.222Z,98801.94
2022-12-08T15:09:41.751Z,98796.37
2022-12-08T15:12:27.346Z,98798.45
2022-12-08T15:15:02.977Z,98798.51
2022-12-08T15:17:44.195Z,98797.70
2022-12-08T15:20:35.882Z,98792.59
2022-12-08T15:23:18.883Z,98798.52
2022-12-08T15:25:52.206Z,98791.21
2022-12-08T15:28:30.108Z,98788.18
2022-12-08T15:31:01.873Z,98787.77
2022-12-08T15:33:34.271Z,98783.55
2022-12-08T15:36:08.526Z,98781.18
2022-12-08T15:38:41.462Z,98782.17
2022-12-08T15:41:15.280Z,98787.84
2022-12-08T15:43:47.903Z,98786.64
2022-12-08T15:46:20.242Z,98788.74
2022-12-08T15:48:57.916Z,98791.73
2022-12-08T15:51:31.106Z,98790.77
2022-12-08T15:54:03.516Z,98791.58
2022-12-08T15:56:41.203Z,98791.66
2022-12-08T15:59:28.695Z,98791.42
2022-12-08T16:02:01.064Z,98791.65
2022-12-08T16:07:28.436Z,98785.80
2022-12-08T16:10:01.457Z,98782.31
2022-12-08T16:15:59.850Z,98783.03
2022-12-08T16:18:36.075Z,98782.25
2022-12-08T16:21:25.534Z,98786.73
2022-12-08T16:24:04.625Z,98786.58
2022-12-08T16:29:32.271Z,98787.36
2022-12-08T16:32:04.709Z,98788.30
2022-12-08T16:34:36.910Z,98785.89
2022-12-08T16:37:10.130Z,98786.59
2022-12-08T16:39:45.769Z,98791.61
2022-12-08T16:42:37.903Z,98792.81
2022-12-08T16:45:13.207Z,98791.77
2022-12-08T16:47:47.356Z,98794.65
2022-12-08T16:50:20.267Z,98791.63
2022-12-08T16:52:57.060Z,98785.05
2022-12-08T16:55:29.585Z,98780.63
2022-12-08T16:58:02.726Z,98778.98
2022-12-08T17:00:37.190Z,98777.13
2022-12-08T17:03:10.997Z,98777.59
2022-12-08T17:05:44.774Z,98775.92
2022-12-08T17:08:17.094Z,98775.41
2022-12-08T17:11:07.314Z,98776.61
2022-12-08T17:13:41.897Z,98774.89
2022-12-08T17:16:17.786Z,98771.23
2022-12-08T17:18:50.787Z,98768.59
2022-12-08T17:21:22.994Z,98765.96
2022-12-08T17:23:55.137Z,98761.91
2022-12-08T17:26:27.327Z,98759.11
2022-12-08T17:29:02.674Z,98758.23
2022-12-08T17:31:35.244Z,98763.43
2022-12-08T17:34:10.449Z,98763.45
2022-12-08T17:36:42.844Z,98765.56
2022-12-08T17:39:18.650Z,98765.78
2022-12-08T17:41:51.318Z,98764.23
2022-12-08T17:44:23.463Z,98764.58
2022-12-08T17:46:55.585Z,98762.39
2022-12-08T17:49:29.837Z,98757.65
2022-12-08T17:52:04.716Z,98758.94
2022-12-08T17:54:37.049Z,98754.39
2022-12-08T17:57:09.198Z,98754.45
2022-12-08T17:59:41.355Z,98752.62
2022-12-08T18:02:13.896Z,98751.73
2022-12-08T18:04:46.181Z,98748.27
2022-12-08T18:07:18.376Z,98745.52
2022-12-08T18:09:51.930Z,98740.86
2022-12-08T18:12:24.189Z,98736.73
2022-12-08T18:14:56.488Z,98733.08
2022-12-08T18:17:28.951Z,98726.48
2022-12-08T18:20:01.152Z,98724.15
2022-12-08T18:22:33.348Z,98723.70
2022-12-08T18:25:06.854Z,98722.40
2022-12-08T18:27:43.137Z,98723.48
2022-12-08T18:30:19.206Z,98725.66
2022-12-08T18:32:57.093Z,98729.21
2022-12-08T18:35:29.544Z,98730.37
2022-12-08T18:38:02.075Z,98730.20
2022-12-08T18:40:34.499Z,98727.67
2022-12-08T18:43:06.693Z,98732.77
2022-12-08T18:45:41.407Z,98734.91
2022-12-08T18:48:13.590Z,98727.59
2022-12-08T18:50:45.939Z,98731.45
2022-12-08T18:53:18.957Z,98729.36
2022-12-08T18:55:52.062Z,98732.11
2022-12-08T18:58:24.447Z,98727.69
2022-12-08T19:00:56.640Z,98725.17
2022-12-08T19:03:29.618Z,98722.28
2022-12-08T19:06:09.004Z,98722.14
2022-12-08T19:08:41.389Z,98717.84
2022-12-08T19:11:22.396Z,98718.65
2022-12-08T19:13:55.712Z,98715.38
2022-12-08T19:16:28.173Z,98709.73
2022-12-08T19:19:01.979Z,98712.05
2022-12-08T19:21:34.572Z,98710.90
2022-12-08T19:24:08.175Z,98711.28
2022-12-08T19:26:41.399Z,98710.45
2022-12-08T19:29:14.338Z,98708.75
2022-12-08T19:31:46.726Z,98704.43
2022-12-08T19:34:18.976Z,98697.34
2022-12-08T19:36:51.289Z,98693.72
2022-12-08T19:39:42.971Z,98694.92
2022-12-08T19:42:36.322Z,98694.73
2022-12-08T19:45:12.375Z,98695.66
2022-12-08T19:47:45.171Z,98691.95
2022-12-08T19:50:35.775Z,98699.14
2022-12-08T19:53:10.142Z,98700.86
2022-12-08T19:55:43.047Z,98703.38
2022-12-08T19:58:15.192Z,98703.06
2022-12-08T20:00:48.188Z,98699.80
2022-12-08T20:03:22.220Z,98698.24
2022-12-08T20:05:56.368Z,98693.73
2022-12-08T20:08:28.787Z,98694.91
2022-12-08T20:11:00.984Z,98693.83
2022-12-08T20:13:43.890Z,98693.80
2022-12-08T20:16:17.254Z,98688.80
2022-12-08T20:18:49.467Z,98690.59
2022-12-08T20:21:22.143Z,98688.58
2022-12-08T20:23:55.599Z,98684.52
2022-12-08T20:26:27.770Z,98680.83
2022-12-08T20:28:59.969Z,98678.48
2022-12-08T20:31:34.388Z,98673.08
2022-12-08T20:34:06.894Z,98673.55
2022-12-08T20:36:39.057Z,98674.21
2022-12-08T20:39:14.627Z,98680.95
2022-12-08T20:41:48.194Z,98680.38
2022-12-08T20:44:20.726Z,98682.89
2022-12-08T20:46:53.061Z,98680.96
2022-12-08T20:49:28.544Z,98684.77
2022-12-08T20:52:05.271Z,98684.91
2022-12-08T20:54:38.162Z,98682.30
2022-12-08T20:57:10.469Z,98679.02
2022-12-08T20:59:42.686Z,98675.22
2022-12-08T21:02:14.984Z,98666.41
2022-12-08T21:04:47.313Z,98664.20
2022-12-08T21:07:19.707Z,98666.61
2022-12-08T21:09:52.877Z,98667.15
2022-12-08T21:12:25.129Z,98668.58
2022-12-08T21:14:57.942Z,98668.55
2022-12-08T21:17:30.429Z,98670.08
2022-12-08T21:20:03.081Z,98670.42
2022-12-08T21:22:35.521Z,98671.27
2022-12-08T21:25:09.250Z,98674.19
2022-12-08T21:27:42.059Z,98671.02
2022-12-08T21:30:16.244Z,98669.10
2022-12-08T21:32:49.446Z,98664.58
2022-12-08T21:35:21.870Z,98656.92
2022-12-08T21:37:54.247Z,98657.34
2022-12-08T21:40:27.105Z,98652.20
2022-12-08T21:42:59.357Z,98649.80
2022-12-08T21:45:32.656Z,98643.98
2022-12-08T21:48:10.967Z,98641.77
2022-12-08T21:50:44.157Z,98642.40
2022-12-08T21:53:16.561Z,98639.27
2022-12-08T21:55:48.806Z,98638.38
2022-12-08T21:58:21.552Z,98636.81
2022-12-08T22:00:53.890Z,98637.15
2022-12-08T22:03:26.863Z,98636.98
2022-12-08T22:05:59.529Z,98635.27
2022-12-08T22:08:31.827Z,98631.27
2022-12-08T22:11:04.630Z,98628.86
2022-12-08T22:13:38.650Z,98625.78
2022-12-08T22:16:14.926Z,98623.78
2022-12-08T22:18:47.175Z,98619.34
2022-12-08T22:21:20.332Z,98619.56
2022-12-08T22:23:52.727Z,98617.48
2022-12-08T22:26:24.992Z,98612.59
2022-12-08T22:28:57.314Z,98612.52
2022-12-08T22:31:29.835Z,98613.08
2022-12-08T22:34:02.105Z,98617.12
2022-12-08T22:36:34.399Z,98615.99
2022-12-08T22:39:07.128Z,98610.52
2022-12-08T22:41:39.527Z,98611.85
2022-12-08T22:44:12.697Z,98611.48
2022-12-08T22:46:45.897Z,98606.48
2022-12-08T22:49:18.135Z,98605.66
2022-12-08T22:51:50.304Z,98605.23
2022-12-08T22:54:22.647Z,98608.45
2022-12-08T22:56:55.347Z,98608.40
2022-12-08T22:59:28.052Z,98613.36
2022-12-08T23:02:00.331Z,98615.55
2022-12-08T23:04:32.886Z,98614.77
2022-12-08T23:07:05.562Z,98611.85
2022-12-08T23:09:37.673Z,98614.42
2022-12-08T23:12:10.613Z,98617.49
2022-12-08T23:14:43.234Z,98621.57
2022-12-08T23:17:15.663Z,98620.08
2022-12-08T23:19:47.887Z,98618.10
2022-12-08T23:22:19.956Z,98615.64
2022-12-08T23:24:52.289Z,98612.70
2022-12-08T23:27:25.068Z,98619.65
2022-12-08T23:29:57.331Z,98620.07
2022-12-08T23:32:29.572Z,98619.29
2022-12-08T23:35:01.807Z,98621.77
2022-12-08T23:37:33.981Z,98625.06
2022-12-08T23:40:07.865Z,98623.17
2022-12-08T23:42:40.282Z,98623.68
2022-12-08T23:45:13.601Z,98621.06
2022-12-08T23:47:45.710Z,98624.48
2022-12-08T23:50:18.268Z,98615.41
2022-12-08T23:52:50.946Z,98610.65
2022-12-08T23:55:23.506Z,98609.20
2022-12-08T23:57:55.664Z,98607.54
